Genesis Freedom — WDG9353 — position and weather

sailwx.info

Track history (hours):
 
Tides and Currents Weather Stations Pressure Air Temp Water Temp Dewpoint Dewpoint Depression Visibility Wind Speed Wind Dir Waves Ship Positions

Genesis Freedom

Owner: Genesis Marine, LLC, Houston, TX. More information available from US FCC via Universal Licensing System and Coast Guard Vessel Documentation Center.

Last reported at 2018-Jan-19 00:49 UTC. Time now 2018-Jan-21 14:57 UTC.
Position N 29°43' W 095°01'.

Length 149 m; draft 6 m.

Type: . MMSI: 367586890.

Date/timePositionNaut miles runAvg speedWind from/ knotsBaromVisibWave heightAir tempDewpointWater temp
2018-Jan-19 00:49N 29°43' W 095°01'2 7.6
2018-Jan-19 00:30N 29°41' W 094°59'4 8.7
2018-Jan-19 00:00N 29°37' W 094°58'9 0.4
2018-Jan-18 03:45N 29°30' W 094°52'1 4.8
2018-Jan-18 03:30N 29°31' W 094°53'3 6.3
2018-Jan-18 03:00N 29°33' W 094°55'3 7.0
2018-Jan-18 02:30N 29°36' W 094°57'4 7.4
2018-Jan-18 02:00N 29°40' W 094°58'3 6.7
2018-Jan-18 01:30N 29°42' W 095°01'3 5.8
2018-Jan-18 01:00N 29°44' W 095°04'  
2018-Jan-10 03:57N 25°20' W 080°03'3 7.2
2018-Jan-10 03:30N 25°23' W 080°02'4 7.7
2018-Jan-10 03:00N 25°27' W 080°02'4 7.8
2018-Jan-10 02:30N 25°31' W 080°02'4 7.9
2018-Jan-10 02:01N 25°35' W 080°02'4 8.0
2018-Jan-10 01:31N 25°39' W 080°02'4 8.3
2018-Jan-10 01:00N 25°43' W 080°03'4 8.4
2018-Jan-10 00:30N 25°47' W 080°04'4 8.3
2018-Jan-10 00:01N 25°51' W 080°04'4 8.2
2018-Jan-09 23:30N 25°56' W 080°04'4 8.9
2018-Jan-09 23:00N 26°00' W 080°05'5 9.5
2018-Jan-09 22:30N 26°05' W 080°05'2 4.5
2018-Jan-09 22:00N 26°06' W 080°07'0 0.0
2018-Jan-09 21:28N 26°06' W 080°07'0 0.0
2018-Jan-09 20:58N 26°06' W 080°07'0 0.0
2018-Jan-09 20:28N 26°06' W 080°07'0 0.0
2018-Jan-09 19:58N 26°06' W 080°07'0 0.0
2018-Jan-09 19:25N 26°06' W 080°07'0 0.0
2018-Jan-09 18:58N 26°06' W 080°07'0 0.0
2018-Jan-09 18:28N 26°06' W 080°07'0 0.0
2018-Jan-09 17:58N 26°06' W 080°07'0 0.0
2018-Jan-09 17:28N 26°06' W 080°07'0 0.0
2018-Jan-09 16:58N 26°06' W 080°07'0 0.0
2018-Jan-09 16:28N 26°06' W 080°07'0 0.0
2018-Jan-09 15:55N 26°06' W 080°07'0 0.0
2018-Jan-09 15:28N 26°06' W 080°07'0 0.0
2018-Jan-09 14:58N 26°06' W 080°07'0 0.0
2018-Jan-09 14:28N 26°06' W 080°07'0 0.0
2018-Jan-09 13:58N 26°06' W 080°07'0 0.0
2018-Jan-09 13:19N 26°06' W 080°07'0 0.0
2018-Jan-09 12:49N 26°06' W 080°07'0 0.0
2018-Jan-09 12:22N 26°06' W 080°07'0 0.0
2018-Jan-09 11:52N 26°06' W 080°07'0 0.0
2018-Jan-09 11:16N 26°06' W 080°07'0 0.0
2018-Jan-09 10:52N 26°06' W 080°07'0 0.0
2018-Jan-09 10:25N 26°06' W 080°07'0 0.0
2018-Jan-09 09:52N 26°06' W 080°07'0 0.0
2018-Jan-09 09:22N 26°06' W 080°07'0 0.0
2018-Jan-09 08:55N 26°06' W 080°07'0 0.0
2018-Jan-09 08:25N 26°06' W 080°07'0 0.0
2018-Jan-09 07:55N 26°06' W 080°07'0 0.0
2018-Jan-09 07:22N 26°06' W 080°07'0 0.0
2018-Jan-09 06:55N 26°06' W 080°07'0 0.0
2018-Jan-09 06:28N 26°06' W 080°07'0 0.0
2018-Jan-09 05:58N 26°06' W 080°07'0 0.0
2018-Jan-09 05:28N 26°06' W 080°07'0 0.0
2018-Jan-09 04:58N 26°06' W 080°07'0 0.0
2018-Jan-09 04:28N 26°06' W 080°07'0 0.0
2018-Jan-09 03:58N 26°06' W 080°07'0 0.0
2018-Jan-09 03:28N 26°06' W 080°07'0 0.0
2018-Jan-09 02:58N 26°06' W 080°07'0 0.0
2018-Jan-09 02:28N 26°06' W 080°07'0 0.0
2018-Jan-09 01:58N 26°06' W 080°07'0 0.0
2018-Jan-09 01:28N 26°06' W 080°07'0 0.0
2018-Jan-09 00:58N 26°06' W 080°07'  
Track history (hours):
 
Tides and Currents Weather Stations Pressure Air Temp Water Temp Dewpoint Dewpoint Depression Visibility Wind Speed Wind Dir Waves Ship Positions

Genesis Freedom

Owner: Genesis Marine, LLC, Houston, TX. More information available from US FCC via Universal Licensing System and Coast Guard Vessel Documentation Center.

Last reported at 2018-Jan-19 00:49 UTC. Time now 2018-Jan-21 14:57 UTC.
Position N 29°43' W 095°01'.

Length 149 m; draft 6 m.

Type: . MMSI: 367586890.

Date/timePositionNaut miles runAvg speedWind from/ knotsBaromVisibWave heightAir tempDewpointWater temp
2018-Jan-19 00:49N 29°43' W 095°01'2 7.6
2018-Jan-19 00:30N 29°41' W 094°59'4 8.7
2018-Jan-19 00:00N 29°37' W 094°58'9 0.4
2018-Jan-18 03:45N 29°30' W 094°52'1 4.8
2018-Jan-18 03:30N 29°31' W 094°53'3 6.3
2018-Jan-18 03:00N 29°33' W 094°55'3 7.0
2018-Jan-18 02:30N 29°36' W 094°57'4 7.4
2018-Jan-18 02:00N 29°40' W 094°58'3 6.7
2018-Jan-18 01:30N 29°42' W 095°01'3 5.8
2018-Jan-18 01:00N 29°44' W 095°04'  
2018-Jan-10 03:57N 25°20' W 080°03'3 7.2
2018-Jan-10 03:30N 25°23' W 080°02'4 7.7
2018-Jan-10 03:00N 25°27' W 080°02'4 7.8
2018-Jan-10 02:30N 25°31' W 080°02'4 7.9
2018-Jan-10 02:01N 25°35' W 080°02'4 8.0
2018-Jan-10 01:31N 25°39' W 080°02'4 8.3
2018-Jan-10 01:00N 25°43' W 080°03'4 8.4
2018-Jan-10 00:30N 25°47' W 080°04'4 8.3
2018-Jan-10 00:01N 25°51' W 080°04'4 8.2
2018-Jan-09 23:30N 25°56' W 080°04'4 8.9
2018-Jan-09 23:00N 26°00' W 080°05'5 9.5
2018-Jan-09 22:30N 26°05' W 080°05'2 4.5
2018-Jan-09 22:00N 26°06' W 080°07'0 0.0
2018-Jan-09 21:28N 26°06' W 080°07'0 0.0
2018-Jan-09 20:58N 26°06' W 080°07'0 0.0
2018-Jan-09 20:28N 26°06' W 080°07'0 0.0
2018-Jan-09 19:58N 26°06' W 080°07'0 0.0
2018-Jan-09 19:25N 26°06' W 080°07'0 0.0
2018-Jan-09 18:58N 26°06' W 080°07'0 0.0
2018-Jan-09 18:28N 26°06' W 080°07'0 0.0
2018-Jan-09 17:58N 26°06' W 080°07'0 0.0
2018-Jan-09 17:28N 26°06' W 080°07'0 0.0
2018-Jan-09 16:58N 26°06' W 080°07'0 0.0
2018-Jan-09 16:28N 26°06' W 080°07'0 0.0
2018-Jan-09 15:55N 26°06' W 080°07'0 0.0
2018-Jan-09 15:28N 26°06' W 080°07'0 0.0
2018-Jan-09 14:58N 26°06' W 080°07'0 0.0
2018-Jan-09 14:28N 26°06' W 080°07'0 0.0
2018-Jan-09 13:58N 26°06' W 080°07'0 0.0
2018-Jan-09 13:19N 26°06' W 080°07'0 0.0
2018-Jan-09 12:49N 26°06' W 080°07'0 0.0
2018-Jan-09 12:22N 26°06' W 080°07'0 0.0
2018-Jan-09 11:52N 26°06' W 080°07'0 0.0
2018-Jan-09 11:16N 26°06' W 080°07'0 0.0
2018-Jan-09 10:52N 26°06' W 080°07'0 0.0
2018-Jan-09 10:25N 26°06' W 080°07'0 0.0
2018-Jan-09 09:52N 26°06' W 080°07'0 0.0
2018-Jan-09 09:22N 26°06' W 080°07'0 0.0
2018-Jan-09 08:55N 26°06' W 080°07'0 0.0
2018-Jan-09 08:25N 26°06' W 080°07'0 0.0
2018-Jan-09 07:55N 26°06' W 080°07'0 0.0
2018-Jan-09 07:22N 26°06' W 080°07'0 0.0
2018-Jan-09 06:55N 26°06' W 080°07'0 0.0
2018-Jan-09 06:28N 26°06' W 080°07'0 0.0
2018-Jan-09 05:58N 26°06' W 080°07'0 0.0
2018-Jan-09 05:28N 26°06' W 080°07'0 0.0
2018-Jan-09 04:58N 26°06' W 080°07'0 0.0
2018-Jan-09 04:28N 26°06' W 080°07'0 0.0
2018-Jan-09 03:58N 26°06' W 080°07'0 0.0
2018-Jan-09 03:28N 26°06' W 080°07'0 0.0
2018-Jan-09 02:58N 26°06' W 080°07'0 0.0
2018-Jan-09 02:28N 26°06' W 080°07'0 0.0
2018-Jan-09 01:58N 26°06' W 080°07'0 0.0
2018-Jan-09 01:28N 26°06' W 080°07'0 0.0
2018-Jan-09 00:58N 26°06' W 080°07'  

Dump ship's entire track history